Time;durP1;ratioP1;P1;durP2;ratioP2;P2;SDS_P1;SDS_P2;PMS_P1;PMS_P2;Temp;Humidity;BMP_temperature;BMP_pressure;BME280_temperature;BME280_humidity;BME280_pressure;Samples;Min_cycle;Max_cycle;Signal;HPM_P1;HPM_P2
2023/06/19 00:01:14;;;;;;;;;;;;;;;;;;6276498;28;20422;-68
2023/06/19 00:04:14;;;;;;;3.60;3.30;;;;;;;;;;6272196;28;19913;-67
2023/06/19 00:07:14;;;;;;;4.33;3.63;;;;;;;;;;6278966;28;20028;-68
2023/06/19 00:10:15;;;;;;;8.67;4.10;;;;;;;;;;6280459;28;20365;-66
2023/06/19 00:13:15;;;;;;;5.00;4.03;;;;;;;;;;6274052;28;20477;-69
2023/06/19 00:16:15;;;;;;;4.27;3.87;;;;;;;;;;6278099;28;20513;-69
2023/06/19 00:19:17;;;;;;;5.53;3.97;;;;;;;;;;6282139;28;20295;-68
2023/06/19 00:22:17;;;;;;;;;;;;;;;;;;6283246;28;20024;-69
2023/06/19 00:25:20;;;;;;;3.83;3.28;;;;;;;;;;6282778;28;20337;-68
2023/06/19 00:28:21;;;;;;;4.65;3.58;;;;;;;;;;6278669;28;20012;-69
2023/06/19 00:31:21;;;;;;;4.22;3.83;;;;;;;;;;6280899;28;20056;-69
2023/06/19 00:34:24;;;;;;;5.47;4.00;;;;;;;;;;6280609;28;20031;-68
2023/06/19 00:37:24;;;;;;;4.32;3.90;;;;;;;;;;6272989;28;20013;-68
2023/06/19 00:40:27;;;;;;;4.73;4.17;;;;;;;;;;6286938;28;20020;-72
2023/06/19 00:43:27;;;;;;;6.78;4.22;;;;;;;;;;6275472;28;20442;-68
2023/06/19 00:46:28;;;;;;;4.60;4.20;;;;;;;;;;6278333;28;20016;-68
2023/06/19 00:49:29;;;;;;;5.80;4.32;;;;;;;;;;6282008;28;20079;-69
2023/06/19 00:52:29;;;;;;;6.22;3.97;;;;;;;;;;6287428;28;20037;-68
2023/06/19 00:55:32;;;;;;;4.53;3.63;;;;;;;;;;6275721;28;20096;-68
2023/06/19 00:58:32;;;;;;;6.13;3.92;;;;;;;;;;5584397;28;10000728;-66
2023/06/19 01:01:32;;;;;;;4.20;3.90;;;;;;;;;;6289877;28;20464;-67
2023/06/19 01:04:33;;;;;;;5.23;3.93;;;;;;;;;;6290752;28;20032;-69
2023/06/19 01:07:33;;;;;;;4.07;3.67;;;;;;;;;;6286040;28;20111;-67
2023/06/19 01:10:36;;;;;;;4.50;3.70;;;;;;;;;;6280301;28;20104;-68
2023/06/19 01:13:48;;;;;;;8.13;4.13;;;;;;;;;;6294414;28;20111;-68
2023/06/19 01:16:48;;;;;;;4.20;3.90;;;;;;;;;;6280200;28;20060;-67
2023/06/19 01:19:48;;;;;;;4.33;3.80;;;;;;;;;;6292701;28;20115;-68
2023/06/19 01:22:49;;;;;;;4.67;4.17;;;;;;;;;;6281718;28;20307;-67
2023/06/19 01:25:49;;;;;;;4.33;3.63;;;;;;;;;;6289687;28;20024;-67
2023/06/19 01:28:49;;;;;;;4.10;3.70;;;;;;;;;;6290110;28;20129;-68
2023/06/19 01:31:58;;;;;;;5.70;4.03;;;;;;;;;;5937793;28;10000264;-68
2023/06/19 01:34:59;;;;;;;3.95;3.60;;;;;;;;;;6289797;28;20513;-67
2023/06/19 01:38:00;;;;;;;5.25;4.30;;;;;;;;;;6290751;28;20012;-67
2023/06/19 01:41:00;;;;;;;4.78;4.13;;;;;;;;;;6282381;28;20638;-68
2023/06/19 01:44:01;;;;;;;4.63;4.07;;;;;;;;;;6288840;28;20024;-69
2023/06/19 01:47:11;;;;;;;5.72;3.60;;;;;;;;;;6284227;28;20032;-68
2023/06/19 01:50:11;;;;;;;7.35;4.07;;;;;;;;;;6279905;28;20400;-66
2023/06/19 01:53:11;;;;;;;6.07;3.97;;;;;;;;;;6278513;28;20025;-68
2023/06/19 01:56:12;;;;;;;4.63;3.87;;;;;;;;;;6292300;28;20636;-68
2023/06/19 01:59:12;;;;;;;5.50;4.40;;;;;;;;;;6283407;28;20017;-68
2023/06/19 02:02:12;;;;;;;4.33;3.90;;;;;;;;;;6285565;28;20017;-68
2023/06/19 02:05:13;;;;;;;4.73;4.13;;;;;;;;;;6293195;28;20020;-68
2023/06/19 02:08:13;;;;;;;4.45;4.05;;;;;;;;;;6283521;28;20052;-68
2023/06/19 02:11:14;;;;;;;4.70;3.73;;;;;;;;;;6282114;28;20029;-68
2023/06/19 02:14:14;;;;;;;5.63;3.97;;;;;;;;;;6282752;28;20024;-68
2023/06/19 02:17:15;;;;;;;5.37;4.20;;;;;;;;;;6294930;28;20040;-68
2023/06/19 02:20:15;;;;;;;4.10;3.63;;;;;;;;;;6283012;28;20390;-68
2023/06/19 02:23:15;;;;;;;4.97;4.00;;;;;;;;;;6284984;28;20096;-69
2023/06/19 02:26:15;;;;;;;3.93;3.60;;;;;;;;;;6276768;28;20033;-68
2023/06/19 02:29:16;;;;;;;4.87;4.17;;;;;;;;;;6281785;28;20120;-68
2023/06/19 02:32:16;;;;;;;5.10;4.20;;;;;;;;;;6279446;28;20035;-68
2023/06/19 02:35:17;;;;;;;4.67;4.23;;;;;;;;;;6287798;28;20066;-68
2023/06/19 02:38:21;;;;;;;4.90;4.10;;;;;;;;;;6283835;28;20028;-68
2023/06/19 02:41:21;;;;;;;5.90;4.05;;;;;;;;;;6288834;28;20119;-68
2023/06/19 02:44:21;;;;;;;4.33;3.83;;;;;;;;;;6282366;28;20107;-68
2023/06/19 02:47:22;;;;;;;3.93;3.53;;;;;;;;;;6273969;28;20385;-68
2023/06/19 02:50:22;;;;;;;4.32;3.83;;;;;;;;;;6288161;28;20025;-68
2023/06/19 02:53:22;;;;;;;4.47;3.50;;;;;;;;;;6279658;28;20028;-69
2023/06/19 02:56:24;;;;;;;5.13;3.77;;;;;;;;;;6280340;28;20531;-67
2023/06/19 02:59:24;;;;;;;4.88;4.38;;;;;;;;;;6286742;28;20013;-68
2023/06/19 03:02:24;;;;;;;4.77;4.37;;;;;;;;;;6280032;28;20071;-68
2023/06/19 03:05:26;;;;;;;7.03;3.90;;;;;;;;;;6282808;28;20120;-68
2023/06/19 03:08:27;;;;;;;4.35;3.72;;;;;;;;;;6284744;28;20121;-67
2023/06/19 03:11:27;;;;;;;4.37;3.97;;;;;;;;;;6284997;28;20398;-71
2023/06/19 03:14:27;;;;;;;5.40;3.77;;;;;;;;;;6273007;28;20412;-69
2023/06/19 03:17:27;;;;;;;5.97;4.23;;;;;;;;;;6279838;28;20450;-69
2023/06/19 03:20:28;;;;;;;5.53;3.80;;;;;;;;;;6288194;28;20445;-69
2023/06/19 03:23:28;;;;;;;4.27;3.90;;;;;;;;;;6286629;28;20012;-66
2023/06/19 03:26:28;;;;;;;4.60;4.20;;;;;;;;;;6274451;28;20017;-69
2023/06/19 03:29:29;;;;;;;4.82;3.85;;;;;;;;;;6283152;28;20409;-68
2023/06/19 03:32:29;;;;;;;5.53;4.43;;;;;;;;;;6275808;28;20104;-67
2023/06/19 03:35:29;;;;;;;4.87;4.10;;;;;;;;;;6275282;28;20021;-69
2023/06/19 03:38:29;;;;;;;4.10;3.70;;;;;;;;;;6274753;28;20039;-68
2023/06/19 03:41:30;;;;;;;4.57;3.90;;;;;;;;;;6281651;28;20028;-69
2023/06/19 03:44:30;;;;;;;4.37;3.97;;;;;;;;;;6281495;28;20013;-68
2023/06/19 03:47:31;;;;;;;3.97;3.37;;;;;;;;;;6286319;28;20013;-68
2023/06/19 03:50:31;;;;;;;4.40;3.97;;;;;;;;;;6279005;28;20409;-68
2023/06/19 03:53:31;;;;;;;4.63;4.23;;;;;;;;;;6270971;28;20037;-68
2023/06/19 03:56:31;;;;;;;5.13;4.23;;;;;;;;;;6283347;28;20471;-68
2023/06/19 03:59:32;;;;;;;4.27;3.90;;;;;;;;;;5580831;28;10000850;-68
2023/06/19 04:02:32;;;;;;;5.93;4.33;;;;;;;;;;6281287;28;20031;-68
2023/06/19 04:05:32;;;;;;;4.27;3.87;;;;;;;;;;6279865;28;20052;-68
2023/06/19 04:08:33;;;;;;;4.50;4.07;;;;;;;;;;6282986;28;20400;-67
2023/06/19 04:11:33;;;;;;;4.35;3.92;;;;;;;;;;6279358;28;20048;-68
2023/06/19 04:14:33;;;;;;;5.23;4.27;;;;;;;;;;6275255;28;20029;-69
2023/06/19 04:17:34;;;;;;;4.80;4.27;;;;;;;;;;6276328;28;20037;-69
2023/06/19 04:20:34;;;;;;;6.50;3.90;;;;;;;;;;6278510;28;20132;-68
2023/06/19 04:23:34;;;;;;;4.88;4.30;;;;;;;;;;6272953;28;20124;-69
2023/06/19 04:26:36;;;;;;;5.67;4.23;;;;;;;;;;6273764;28;20569;-68
2023/06/19 04:29:37;;;;;;;6.55;4.03;;;;;;;;;;6279506;28;20009;-68
2023/06/19 04:32:40;;;;;;;5.03;4.30;;;;;;;;;;6281526;28;20401;-68
2023/06/19 04:35:40;;;;;;;5.40;4.25;;;;;;;;;;6277514;28;20034;-67
2023/06/19 04:38:40;;;;;;;5.83;4.10;;;;;;;;;;6279909;28;20389;-68
2023/06/19 04:41:43;;;;;;;4.73;4.23;;;;;;;;;;6278433;28;20040;-68
2023/06/19 04:44:43;;;;;;;4.43;4.03;;;;;;;;;;6278530;28;20429;-66
2023/06/19 04:47:44;;;;;;;4.70;4.20;;;;;;;;;;6280461;28;20090;-66
2023/06/19 04:50:44;;;;;;;5.05;4.40;;;;;;;;;;6275323;28;20040;-67
2023/06/19 04:53:44;;;;;;;5.40;3.93;;;;;;;;;;6277685;28;20029;-67
2023/06/19 04:56:44;;;;;;;4.90;4.17;;;;;;;;;;6265855;28;20044;-66
2023/06/19 04:59:45;;;;;;;6.63;4.53;;;;;;;;;;6278442;28;20060;-67
2023/06/19 05:02:46;;;;;;;;;;;;;;;;;;6279454;28;20020;-68
2023/06/19 05:05:47;;;;;;;4.68;3.53;;;;;;;;;;6277625;28;20306;-67
2023/06/19 05:08:47;;;;;;;5.07;3.88;;;;;;;;;;6278001;28;20169;-70
2023/06/19 05:11:47;;;;;;;;;;;;;;;;;;6282940;28;20091;-68
2023/06/19 05:14:47;;;;;;;4.63;3.55;;;;;;;;;;6276272;28;19916;-67
2023/06/19 05:17:48;;;;;;;4.77;3.93;;;;;;;;;;6279813;28;20040;-68
2023/06/19 05:20:48;;;;;;;;;;;;;;;;;;6282701;28;20385;-67
2023/06/19 05:23:50;;;;;;;5.80;3.72;;;;;;;;;;6278287;28;20011;-67
2023/06/19 05:26:50;;;;;;;7.25;4.57;;;;;;;;;;6278139;28;20037;-67
2023/06/19 05:29:50;;;;;;;;;;;;;;;;;;6284335;28;20025;-68
2023/06/19 05:32:51;;;;;;;4.25;3.85;;;;;;;;;;6284399;28;19916;-67
2023/06/19 05:35:53;;;;;;;;;;;;;;;;;;6278547;28;20024;-67
2023/06/19 05:38:53;;;;;;;4.35;3.80;;;;;;;;;;6274607;28;19926;-67
2023/06/19 05:41:54;;;;;;;;;;;;;;;;;;6276986;28;20089;-67
2023/06/19 05:44:54;;;;;;;9.23;4.45;;;;;;;;;;6284880;28;19912;-67
2023/06/19 05:47:54;;;;;;;;;;;;;;;;;;6289523;28;20551;-67
2023/06/19 05:50:54;;;;;;;5.20;4.00;;;;;;;;;;6281889;28;19984;-69
2023/06/19 05:53:54;;;;;;;;;;;;;;;;;;6281056;28;20075;-67
2023/06/19 05:56:55;;;;;;;5.32;4.82;;;;;;;;;;6282975;28;20092;-67
2023/06/19 05:59:55;;;;;;;;;;;;;;;;;;6278478;28;20397;-68
2023/06/19 06:02:56;;;;;;;5.90;5.20;;;;;;;;;;6280258;28;19935;-67
2023/06/19 06:06:02;;;;;;;5.82;5.32;;;;;;;;;;6278142;28;20478;-64
2023/06/19 06:09:02;;;;;;;11.10;6.05;;;;;;;;;;6277580;28;20035;-65
2023/06/19 06:12:03;;;;;;;9.18;5.47;;;;;;;;;;6278816;28;20529;-65
2023/06/19 06:15:05;;;;;;;8.70;6.47;;;;;;;;;;6277815;28;20029;-64
2023/06/19 06:18:05;;;;;;;7.07;5.93;;;;;;;;;;6281515;28;20115;-68
2023/06/19 06:21:06;;;;;;;8.52;6.07;;;;;;;;;;6273337;28;20009;-67
2023/06/19 06:24:06;;;;;;;7.80;5.88;;;;;;;;;;6276216;28;20432;-67
2023/06/19 06:27:06;;;;;;;7.25;6.35;;;;;;;;;;6273765;28;20790;-69
2023/06/19 06:30:07;;;;;;;6.82;6.07;;;;;;;;;;6274223;28;20021;-70
2023/06/19 06:33:07;;;;;;;7.50;6.07;;;;;;;;;;6279180;28;20017;-69
2023/06/19 06:36:07;;;;;;;6.37;5.73;;;;;;;;;;6281046;28;20009;-69
2023/06/19 06:39:07;;;;;;;6.93;6.22;;;;;;;;;;6273088;28;20282;-70
2023/06/19 06:42:08;;;;;;;6.33;4.77;;;;;;;;;;6273968;28;20377;-69
2023/06/19 06:45:09;;;;;;;6.28;5.45;;;;;;;;;;6279919;28;20357;-71
2023/06/19 06:48:10;;;;;;;6.50;5.88;;;;;;;;;;6279269;28;20048;-70
2023/06/19 06:51:10;;;;;;;6.37;5.47;;;;;;;;;;6275581;28;20315;-70
2023/06/19 06:54:10;;;;;;;6.30;5.30;;;;;;;;;;6280022;28;20361;-70
2023/06/19 06:57:11;;;;;;;8.02;5.93;;;;;;;;;;6272902;28;20449;-71
2023/06/19 07:00:12;;;;;;;5.97;5.37;;;;;;;;;;6281242;28;20105;-72
2023/06/19 07:03:13;;;;;;;8.00;5.55;;;;;;;;;;6282816;28;20313;-72
2023/06/19 07:06:13;;;;;;;7.15;5.65;;;;;;;;;;6279204;28;20024;-72
2023/06/19 07:09:14;;;;;;;5.87;5.37;;;;;;;;;;6282322;28;20034;-71
2023/06/19 07:12:14;;;;;;;6.60;5.03;;;;;;;;;;6277105;28;20305;-71
2023/06/19 07:15:14;;;;;;;6.13;4.53;;;;;;;;;;6279332;28;20020;-71
2023/06/19 07:18:14;;;;;;;5.43;4.90;;;;;;;;;;6276972;28;20086;-71
2023/06/19 07:21:15;;;;;;;6.50;4.60;;;;;;;;;;6283430;28;20020;-71
2023/06/19 07:24:16;;;;;;;4.70;4.30;;;;;;;;;;6278047;28;20258;-72
2023/06/19 07:27:16;;;;;;;5.43;4.93;;;;;;;;;;6287449;28;20107;-72
2023/06/19 07:30:16;;;;;;;5.33;4.83;;;;;;;;;;6286721;28;20024;-69
2023/06/19 07:33:17;;;;;;;6.68;4.88;;;;;;;;;;6289963;28;20016;-70
2023/06/19 07:36:17;;;;;;;5.97;4.67;;;;;;;;;;6282077;28;20020;-70
2023/06/19 07:39:17;;;;;;;5.30;4.80;;;;;;;;;;6280547;28;20276;-70
2023/06/19 07:42:18;;;;;;;5.23;4.73;;;;;;;;;;6287098;28;20305;-72
2023/06/19 07:45:18;;;;;;;5.15;4.07;;;;;;;;;;6281016;28;20283;-72
2023/06/19 07:48:18;;;;;;;5.10;4.50;;;;;;;;;;6282257;28;20031;-73
2023/06/19 07:51:18;;;;;;;5.73;4.57;;;;;;;;;;6283270;28;20028;-70
2023/06/19 07:54:19;;;;;;;5.00;4.50;;;;;;;;;;6276419;28;20017;-70
2023/06/19 07:57:19;;;;;;;5.28;4.78;;;;;;;;;;6283573;28;20367;-71
2023/06/19 08:00:20;;;;;;;5.25;4.72;;;;;;;;;;6279441;28;20439;-69
2023/06/19 08:03:21;;;;;;;6.23;4.67;;;;;;;;;;6284670;28;20045;-70
2023/06/19 08:06:21;;;;;;;8.68;4.55;;;;;;;;;;6280542;28;20278;-72
2023/06/19 08:09:22;;;;;;;4.63;4.17;;;;;;;;;;6278660;28;20028;-71
2023/06/19 08:12:22;;;;;;;5.53;5.03;;;;;;;;;;6287537;28;20025;-71
2023/06/19 08:15:22;;;;;;;5.77;5.00;;;;;;;;;;6298039;28;20011;-72
2023/06/19 08:18:23;;;;;;;12.30;5.27;;;;;;;;;;6304803;28;20047;-70
2023/06/19 08:21:23;;;;;;;6.00;4.97;;;;;;;;;;6294486;28;20009;-71
2023/06/19 08:24:24;;;;;;;6.28;5.25;;;;;;;;;;6288441;28;20350;-71
2023/06/19 08:27:25;;;;;;;4.97;4.57;;;;;;;;;;6280177;28;20283;-69
2023/06/19 08:30:25;;;;;;;5.63;5.10;;;;;;;;;;6302612;28;20025;-72
2023/06/19 08:33:26;;;;;;;5.05;4.32;;;;;;;;;;6298447;28;20021;-73
2023/06/19 08:36:26;;;;;;;7.22;4.95;;;;;;;;;;6308027;28;20024;-73
2023/06/19 08:39:26;;;;;;;5.37;4.90;;;;;;;;;;6310409;28;20036;-70
2023/06/19 08:42:27;;;;;;;5.95;4.97;;;;;;;;;;6309781;28;20013;-72
2023/06/19 08:45:28;;;;;;;5.45;4.88;;;;;;;;;;6309763;28;20016;-71
2023/06/19 08:48:28;;;;;;;5.07;4.57;;;;;;;;;;6311686;28;20031;-72
2023/06/19 08:51:30;;;;;;;5.13;4.63;;;;;;;;;;6304584;28;20020;-71
2023/06/19 08:54:30;;;;;;;5.63;4.97;;;;;;;;;;6303603;28;20684;-71
2023/06/19 08:57:35;;;;;;;7.65;4.65;;;;;;;;;;6304723;28;20028;-71
2023/06/19 09:00:35;;;;;;;5.22;4.72;;;;;;;;;;6282636;28;20293;-70
2023/06/19 09:03:35;;;;;;;7.10;4.57;;;;;;;;;;6283649;28;20609;-71
2023/06/19 09:06:37;;;;;;;6.97;4.83;;;;;;;;;;6283385;28;20281;-72
2023/06/19 09:09:43;;;;;;;6.75;4.43;;;;;;;;;;6283681;28;20306;-71
2023/06/19 09:12:44;;;;;;;5.60;5.10;;;;;;;;;;6270809;28;20051;-72
2023/06/19 09:15:44;;;;;;;5.45;4.95;;;;;;;;;;6283809;28;20048;-73
2023/06/19 09:18:46;;;;;;;6.53;4.83;;;;;;;;;;6290879;28;20028;-72
2023/06/19 09:21:46;;;;;;;6.00;5.35;;;;;;;;;;6285154;28;20107;-71
2023/06/19 09:24:46;;;;;;;5.10;4.70;;;;;;;;;;6290102;28;20035;-71
2023/06/19 09:27:47;;;;;;;6.70;4.63;;;;;;;;;;6291037;28;20596;-71
2023/06/19 09:30:57;;;;;;;5.13;4.63;;;;;;;;;;6273845;28;20098;-71
2023/06/19 09:33:58;;;;;;;7.53;5.35;;;;;;;;;;6289066;28;20066;-72
2023/06/19 09:36:58;;;;;;;6.25;5.65;;;;;;;;;;6284300;28;20021;-71
2023/06/19 09:39:59;;;;;;;5.67;5.17;;;;;;;;;;6285647;28;20469;-71
2023/06/19 09:43:01;;;;;;;5.45;5.05;;;;;;;;;;6282662;28;20033;-70
2023/06/19 09:46:02;;;;;;;6.20;5.60;;;;;;;;;;6284582;28;20085;-71
2023/06/19 09:49:04;;;;;;;6.25;5.50;;;;;;;;;;6286070;28;20119;-72
2023/06/19 09:52:04;;;;;;;6.07;5.47;;;;;;;;;;6288427;28;20485;-72
2023/06/19 09:55:06;;;;;;;7.75;5.57;;;;;;;;;;6292317;28;20020;-72
2023/06/19 09:58:07;;;;;;;6.55;5.18;;;;;;;;;;6281937;28;20016;-72
2023/06/19 10:01:07;;;;;;;5.97;5.47;;;;;;;;;;6283802;28;20493;-71
2023/06/19 10:04:10;;;;;;;5.57;5.03;;;;;;;;;;6283450;28;20024;-72
2023/06/19 10:07:21;;;;;;;5.53;5.03;;;;;;;;;;6289199;28;20267;-72
2023/06/19 10:10:26;;;;;;;5.78;5.25;;;;;;;;;;6291962;28;20128;-70
2023/06/19 10:13:33;;;;;;;6.07;5.50;;;;;;;;;;6290310;28;20085;-72
2023/06/19 10:16:34;;;;;;;6.80;5.60;;;;;;;;;;6298135;28;20108;-73
2023/06/19 10:19:35;;;;;;;5.97;5.40;;;;;;;;;;6291690;28;20028;-72
2023/06/19 10:22:35;;;;;;;5.93;5.32;;;;;;;;;;6287185;28;20024;-72
2023/06/19 10:25:37;;;;;;;5.67;5.17;;;;;;;;;;6293261;28;20029;-72
2023/06/19 10:28:37;;;;;;;6.50;4.93;;;;;;;;;;6297561;28;20392;-73
2023/06/19 10:31:38;;;;;;;5.13;4.63;;;;;;;;;;6287013;28;20028;-72
2023/06/19 10:34:39;;;;;;;5.28;4.78;;;;;;;;;;6288012;28;20040;-72
2023/06/19 10:37:39;;;;;;;5.10;4.70;;;;;;;;;;6288226;28;20507;-72
2023/06/19 10:40:40;;;;;;;5.30;4.78;;;;;;;;;;6278836;28;20362;-72
2023/06/19 10:43:40;;;;;;;5.23;4.63;;;;;;;;;;6285873;28;20020;-72
2023/06/19 10:46:41;;;;;;;4.97;4.47;;;;;;;;;;6288444;28;20029;-71
2023/06/19 10:49:41;;;;;;;5.00;4.60;;;;;;;;;;6284420;28;20521;-72
2023/06/19 10:52:45;;;;;;;4.82;4.43;;;;;;;;;;6281994;28;20361;-72
2023/06/19 10:55:45;;;;;;;4.72;4.32;;;;;;;;;;6288053;28;20028;-71
2023/06/19 10:58:45;;;;;;;4.53;4.13;;;;;;;;;;6307139;28;20032;-71
2023/06/19 11:01:46;;;;;;;4.23;3.93;;;;;;;;;;6299573;28;20032;-71
2023/06/19 11:04:47;;;;;;;4.63;4.22;;;;;;;;;;6283623;28;20392;-69
2023/06/19 11:07:51;;;;;;;6.53;4.30;;;;;;;;;;6282386;28;20025;-71
2023/06/19 11:10:51;;;;;;;5.20;4.55;;;;;;;;;;6278444;28;20275;-71
2023/06/19 11:13:51;;;;;;;4.57;4.17;;;;;;;;;;6270269;28;20025;-71
2023/06/19 11:16:51;;;;;;;4.27;3.97;;;;;;;;;;6286240;28;20021;-71
2023/06/19 11:19:52;;;;;;;4.13;3.83;;;;;;;;;;6284220;28;20108;-71
2023/06/19 11:22:59;;;;;;;4.53;4.17;;;;;;;;;;6289722;28;20029;-72
2023/06/19 11:26:03;;;;;;;3.83;3.53;;;;;;;;;;6288231;28;20489;-71
2023/06/19 11:29:24;;;;;;;4.07;3.78;;;;;;;;;;6285303;28;20075;-73
2023/06/19 11:32:30;;;;;;;5.45;3.88;;;;;;;;;;6273197;28;20035;-71
2023/06/19 11:35:37;;;;;;;4.10;3.67;;;;;;;;;;6284232;28;20107;-72
2023/06/19 11:38:38;;;;;;;4.28;3.97;;;;;;;;;;6286692;28;20024;-72
2023/06/19 11:41:38;;;;;;;4.72;4.18;;;;;;;;;;6280482;28;20047;-71
2023/06/19 11:44:54;;;;;;;4.83;3.97;;;;;;;;;;6282185;28;20039;-72
2023/06/19 11:47:55;;;;;;;4.20;3.80;;;;;;;;;;6287985;28;20328;-72
2023/06/19 11:50:55;;;;;;;4.10;3.80;;;;;;;;;;6288006;28;20115;-71
2023/06/19 11:53:55;;;;;;;4.40;4.00;;;;;;;;;;6285793;28;20366;-72
2023/06/19 11:56:56;;;;;;;5.77;4.00;;;;;;;;;;6287703;28;20024;-72
2023/06/19 11:59:56;;;;;;;5.67;3.77;;;;;;;;;;6283938;28;20036;-70
2023/06/19 12:02:58;;;;;;;4.43;4.07;;;;;;;;;;6280003;28;20347;-73
2023/06/19 12:05:58;;;;;;;4.22;3.83;;;;;;;;;;6288897;28;20037;-72
2023/06/19 12:08:59;;;;;;;3.93;3.63;;;;;;;;;;6284980;28;20046;-72
2023/06/19 12:12:00;;;;;;;4.28;3.50;;;;;;;;;;6285423;28;20028;-71
2023/06/19 12:15:00;;;;;;;4.50;4.20;;;;;;;;;;6286424;28;20013;-72
2023/06/19 12:18:00;;;;;;;4.77;4.43;;;;;;;;;;6280682;28;20428;-71
2023/06/19 12:21:01;;;;;;;5.57;5.18;;;;;;;;;;6276035;28;20012;-72
2023/06/19 12:24:01;;;;;;;4.93;4.63;;;;;;;;;;6279751;28;20100;-72
2023/06/19 12:27:01;;;;;;;4.63;4.32;;;;;;;;;;6284128;28;20762;-72
2023/06/19 12:30:02;;;;;;;4.70;4.40;;;;;;;;;;6293660;28;20035;-73
2023/06/19 12:33:03;;;;;;;4.68;4.28;;;;;;;;;;6278454;28;20100;-72
2023/06/19 12:36:05;;;;;;;5.40;5.00;;;;;;;;;;6281315;28;20382;-72
2023/06/19 12:39:13;;;;;;;4.70;4.40;;;;;;;;;;6274023;28;20082;-72
2023/06/19 12:42:13;;;;;;;4.70;4.35;;;;;;;;;;6280500;28;20505;-70
2023/06/19 12:45:13;;;;;;;6.33;4.00;;;;;;;;;;6285818;28;20008;-71
2023/06/19 12:48:14;;;;;;;5.43;4.93;;;;;;;;;;6287004;28;20757;-71
2023/06/19 12:51:14;;;;;;;6.70;4.70;;;;;;;;;;6280646;28;20020;-71
2023/06/19 12:54:14;;;;;;;4.83;4.53;;;;;;;;;;6271681;28;20043;-71
2023/06/19 12:57:14;;;;;;;4.40;4.10;;;;;;;;;;6279721;28;20028;-71
2023/06/19 13:00:15;;;;;;;5.17;4.87;;;;;;;;;;6284742;28;20050;-72
2023/06/19 13:03:15;;;;;;;5.53;5.03;;;;;;;;;;6282234;28;20016;-71
2023/06/19 13:06:15;;;;;;;5.50;5.20;;;;;;;;;;6282270;28;20325;-71
2023/06/19 13:09:15;;;;;;;5.57;5.13;;;;;;;;;;6281581;28;20040;-71
2023/06/19 13:12:16;;;;;;;5.27;4.93;;;;;;;;;;6284304;28;20032;-72
2023/06/19 13:15:16;;;;;;;5.40;5.07;;;;;;;;;;6280969;28;20024;-71
2023/06/19 13:18:17;;;;;;;5.40;5.10;;;;;;;;;;6287045;28;20313;-69
2023/06/19 13:21:18;;;;;;;6.07;5.68;;;;;;;;;;6287897;28;20032;-71
2023/06/19 13:24:18;;;;;;;6.00;5.70;;;;;;;;;;6285366;28;20031;-72
2023/06/19 13:27:18;;;;;;;5.40;5.10;;;;;;;;;;6279437;28;20017;-71
2023/06/19 13:30:19;;;;;;;5.27;4.87;;;;;;;;;;6283297;28;20035;-73
2023/06/19 13:33:19;;;;;;;5.67;5.17;;;;;;;;;;6278687;28;20289;-72
2023/06/19 13:36:19;;;;;;;5.20;4.83;;;;;;;;;;6288444;28;20098;-72
2023/06/19 13:39:20;;;;;;;5.43;4.93;;;;;;;;;;6287389;28;20128;-72
2023/06/19 13:42:20;;;;;;;5.93;5.43;;;;;;;;;;6286094;28;20036;-71
2023/06/19 13:45:20;;;;;;;6.40;5.97;;;;;;;;;;6286169;28;20019;-72
2023/06/19 13:48:20;;;;;;;5.77;5.47;;;;;;;;;;6287234;28;20074;-70
2023/06/19 13:51:21;;;;;;;5.43;5.10;;;;;;;;;;6285580;28;20024;-71
2023/06/19 13:54:21;;;;;;;6.05;5.65;;;;;;;;;;6279919;28;20497;-71
2023/06/19 13:57:22;;;;;;;5.47;4.97;;;;;;;;;;6281617;28;20129;-73
2023/06/19 14:00:22;;;;;;;5.53;5.13;;;;;;;;;;6278587;28;20087;-70
2023/06/19 14:03:24;;;;;;;4.50;4.20;;;;;;;;;;6288739;28;20028;-70
2023/06/19 14:06:24;;;;;;;4.25;3.95;;;;;;;;;;6288049;28;20070;-70
2023/06/19 14:09:24;;;;;;;4.55;4.25;;;;;;;;;;6293082;28;20091;-70
2023/06/19 14:12:25;;;;;;;4.33;4.03;;;;;;;;;;6288389;28;20016;-70
2023/06/19 14:15:25;;;;;;;3.93;3.63;;;;;;;;;;6288738;28;20025;-71
2023/06/19 14:18:25;;;;;;;4.87;4.47;;;;;;;;;;6289679;28;20033;-70
2023/06/19 14:21:26;;;;;;;5.10;4.70;;;;;;;;;;6288490;28;20056;-71
2023/06/19 14:24:27;;;;;;;5.45;4.72;;;;;;;;;;6285368;28;20090;-71
2023/06/19 14:27:28;;;;;;;5.60;5.20;;;;;;;;;;6286205;28;20017;-70
2023/06/19 14:30:28;;;;;;;5.25;4.93;;;;;;;;;;6278572;28;20020;-71
2023/06/19 14:33:28;;;;;;;4.60;4.30;;;;;;;;;;6286350;28;20020;-71
2023/06/19 14:36:28;;;;;;;5.93;4.93;;;;;;;;;;6292305;28;20381;-71
2023/06/19 14:39:29;;;;;;;4.80;4.50;;;;;;;;;;6292691;28;20113;-70
2023/06/19 14:42:29;;;;;;;5.00;4.70;;;;;;;;;;6288362;28;20027;-71
2023/06/19 14:45:29;;;;;;;4.93;4.63;;;;;;;;;;6289348;28;20023;-71
2023/06/19 14:48:32;;;;;;;4.77;4.47;;;;;;;;;;6290952;28;20044;-71
2023/06/19 14:51:32;;;;;;;4.78;4.47;;;;;;;;;;6291945;28;20081;-70
2023/06/19 14:54:33;;;;;;;4.80;4.38;;;;;;;;;;6280690;28;20028;-72
2023/06/19 14:57:33;;;;;;;4.70;4.40;;;;;;;;;;6289876;28;20028;-71
2023/06/19 15:00:34;;;;;;;4.87;4.47;;;;;;;;;;6290269;28;20031;-71
2023/06/19 15:03:34;;;;;;;5.13;4.72;;;;;;;;;;6278682;28;20040;-71
2023/06/19 15:06:34;;;;;;;4.43;4.13;;;;;;;;;;6290938;28;20020;-71
2023/06/19 15:09:35;;;;;;;4.53;4.30;;;;;;;;;;6287211;28;20632;-72
2023/06/19 15:12:35;;;;;;;5.93;4.23;;;;;;;;;;6287462;28;20043;-73
2023/06/19 15:15:35;;;;;;;4.20;3.90;;;;;;;;;;6285392;28;20034;-71
2023/06/19 15:18:35;;;;;;;4.83;3.83;;;;;;;;;;6282341;28;20102;-70
2023/06/19 15:21:36;;;;;;;4.43;4.03;;;;;;;;;;6283318;28;20028;-71
2023/06/19 15:24:36;;;;;;;4.37;4.07;;;;;;;;;;6289350;28;20028;-72
2023/06/19 15:27:36;;;;;;;4.50;4.10;;;;;;;;;;6279510;28;20393;-71
2023/06/19 15:30:36;;;;;;;4.03;3.73;;;;;;;;;;6291694;28;20432;-69
2023/06/19 15:33:37;;;;;;;4.73;4.23;;;;;;;;;;6291435;28;20036;-71
2023/06/19 15:36:37;;;;;;;3.73;3.37;;;;;;;;;;6287546;28;20520;-68
2023/06/19 15:39:37;;;;;;;4.13;3.83;;;;;;;;;;6287056;28;20035;-71
2023/06/19 15:42:38;;;;;;;4.40;4.00;;;;;;;;;;6272771;28;20502;-70
2023/06/19 15:45:38;;;;;;;4.30;4.00;;;;;;;;;;6272608;28;20021;-71
2023/06/19 15:48:38;;;;;;;4.45;3.92;;;;;;;;;;6270494;28;20279;-71
2023/06/19 15:51:39;;;;;;;4.23;3.80;;;;;;;;;;6275761;28;20129;-72
2023/06/19 15:54:39;;;;;;;4.00;3.70;;;;;;;;;;6284518;28;20064;-73
2023/06/19 15:57:39;;;;;;;3.97;3.60;;;;;;;;;;6286158;28;20044;-72
2023/06/19 16:00:40;;;;;;;4.00;3.70;;;;;;;;;;6275069;28;21320;-72
2023/06/19 16:03:40;;;;;;;4.30;3.90;;;;;;;;;;6275701;28;22044;-70
2023/06/19 16:06:41;;;;;;;4.40;4.00;;;;;;;;;;6285876;28;20816;-72
2023/06/19 16:09:42;;;;;;;4.07;3.67;;;;;;;;;;6278093;28;20028;-73
2023/06/19 16:12:42;;;;;;;4.40;3.80;;;;;;;;;;6274137;28;20020;-70
2023/06/19 16:15:42;;;;;;;4.93;3.60;;;;;;;;;;6279604;28;20378;-71
2023/06/19 16:18:42;;;;;;;3.83;3.53;;;;;;;;;;6279742;28;20293;-70
2023/06/19 16:21:43;;;;;;;6.23;3.70;;;;;;;;;;6274290;28;20065;-72
2023/06/19 16:24:43;;;;;;;4.03;3.63;;;;;;;;;;6294065;28;20191;-72
2023/06/19 16:27:43;;;;;;;5.28;3.97;;;;;;;;;;6298426;28;20278;-70
2023/06/19 16:30:43;;;;;;;4.00;3.70;;;;;;;;;;6278359;28;20021;-71
2023/06/19 16:33:44;;;;;;;3.60;3.30;;;;;;;;;;6268919;28;20488;-72
2023/06/19 16:36:44;;;;;;;4.10;3.65;;;;;;;;;;6272929;28;20034;-71
2023/06/19 16:39:44;;;;;;;4.17;3.87;;;;;;;;;;6269002;28;20546;-71
2023/06/19 16:42:45;;;;;;;5.13;4.00;;;;;;;;;;6274883;28;20608;-70
2023/06/19 16:45:45;;;;;;;4.90;4.40;;;;;;;;;;6276427;28;20017;-71
2023/06/19 16:48:45;;;;;;;4.40;4.00;;;;;;;;;;6282774;28;20525;-71
2023/06/19 16:51:46;;;;;;;3.97;3.67;;;;;;;;;;6275635;28;20028;-70
2023/06/19 16:54:47;;;;;;;4.22;3.83;;;;;;;;;;6276277;28;20119;-71
2023/06/19 16:57:47;;;;;;;7.27;3.77;;;;;;;;;;6282649;28;20024;-72
2023/06/19 17:00:47;;;;;;;4.47;4.07;;;;;;;;;;6279860;28;20370;-70
2023/06/19 17:03:47;;;;;;;7.80;4.03;;;;;;;;;;6275683;28;20024;-71
2023/06/19 17:06:48;;;;;;;4.83;3.67;;;;;;;;;;6295158;28;20853;-73
2023/06/19 17:09:48;;;;;;;4.93;3.73;;;;;;;;;;6288687;28;20158;-69
2023/06/19 17:12:48;;;;;;;4.33;3.93;;;;;;;;;;6283866;28;20025;-72
2023/06/19 17:15:48;;;;;;;3.87;3.57;;;;;;;;;;6288953;28;20323;-71
2023/06/19 17:18:49;;;;;;;4.33;3.93;;;;;;;;;;6277013;28;20028;-75
2023/06/19 17:21:49;;;;;;;4.68;4.28;;;;;;;;;;6279327;28;20648;-73
2023/06/19 17:24:49;;;;;;;4.30;3.90;;;;;;;;;;6279097;28;20096;-71
2023/06/19 17:27:49;;;;;;;4.30;3.90;;;;;;;;;;6279908;28;20024;-72
2023/06/19 17:30:49;;;;;;;5.33;3.80;;;;;;;;;;6279941;28;20469;-71
2023/06/19 17:33:50;;;;;;;4.20;3.80;;;;;;;;;;6274832;28;20040;-73
2023/06/19 17:36:50;;;;;;;4.65;4.25;;;;;;;;;;6280971;28;20107;-71
2023/06/19 17:39:51;;;;;;;6.23;3.83;;;;;;;;;;6286655;28;20027;-72
2023/06/19 17:42:51;;;;;;;6.37;4.00;;;;;;;;;;6282298;28;20287;-72
2023/06/19 17:45:51;;;;;;;4.27;3.87;;;;;;;;;;6282211;28;20112;-72
2023/06/19 17:48:51;;;;;;;4.40;4.00;;;;;;;;;;6282498;28;20073;-70
2023/06/19 17:51:52;;;;;;;4.28;3.88;;;;;;;;;;6279507;28;20021;-73
2023/06/19 17:54:53;;;;;;;3.90;3.60;;;;;;;;;;6282253;28;20113;-73
2023/06/19 17:57:53;;;;;;;4.55;4.15;;;;;;;;;;6281783;28;20079;-72
2023/06/19 18:00:53;;;;;;;3.97;3.57;;;;;;;;;;6281983;28;20020;-71
2023/06/19 18:03:53;;;;;;;4.10;3.43;;;;;;;;;;6276986;28;20294;-72
2023/06/19 18:06:54;;;;;;;3.80;3.50;;;;;;;;;;6284484;28;20024;-72